Aérodrome :
LOGIN :

S'inscrire | Disclaimer

   EN    FR    IT 

 










Légende :    VFR   VFR Marginal   IFR   IFR Intensif   IFR Très Intensif
Visi : 
Plafond : 
>= 8 km
>= 3000ft
5 à 8 km
1000 à 3000 ft
1500m à 5 km
500 à 1000 ft
800 à 1500m
200 à 500 ft
< 800m
< 200 ft
Symboles :   Orages  Brouillard  Fortes neiges  Fortes précipitations  Vent > 20 kt
SIGMETs :   Divers  Orages  Givrage  Turbulence  Onde Orograph.  Cendres Volcan.







- Altitude de l'aérodrome : 265 ft
- Voir les cartes d'approche


LFMC - Le Luc

DERNIER METAR :
  • 221800Z AUTO 02003KT 350V060 9999 ////// 26/17 Q1009

METARs EXPIRÉS :
  • 221730Z AUTO 05004KT 010V110 9999 ////// 27/17 Q1009
  • 221700Z AUTO VRB05KT 9999 ////// 28/18 Q1009
  • 221630Z AUTO 23006KT 170V270 9999 ////// 28/16 Q1009
  • 221600Z AUTO 25008KT 200V280 9999 ////// 29/16 Q1009
  • 221530Z AUTO 16004KT 130V210 9999 ////// 29/18 Q1009

TAF N/A
Pas de NOTAMs connus pour ce terrain.
1 SIGMET publié pour la FIR Marseille (LFMM) :
 
Orages noyés dans la masse
LFMM SIGMET 3 VALID 221800/222000 LFPW
LFMM MARSEILLE FIR/UIR EMBD TS OBS AT 1800Z WI N4500 E00700 - N4400 E00700 - N4400 E00715 - N4330 E00615 - N4445 E00530 - N4500 E00700 TOP FL350 STNR NC=



MET'MAP, la Météo Aéronautique d'un coup d'oeil ! - Copyright ORBIFLY Décembre 2007 - Disclaimer

ORBIFLY MET'MAP TEAM :

Programmation & Développement : Alexandra Zaïnal
Conception & Développement : Baudouin d'Aumeries
Co-Programmation & Développement : Marc-Olivier Méhu
Soutien technique & logistique : Manuel Goepfert

Contact : metmap@orbifly.com




SOURCES & CREDITS :

   NOAA